createdAt,value
2023-12-30T00:00:54.220Z,71.93
2023-12-30T00:03:20.743Z,72.42
2023-12-30T00:05:47.256Z,72.17
2023-12-30T00:08:13.764Z,72.14
2023-12-30T00:10:40.263Z,71.73
2023-12-30T00:13:06.802Z,71.45
2023-12-30T00:15:33.360Z,70.96
2023-12-30T00:17:59.961Z,70.62
2023-12-30T00:20:26.521Z,71.33
2023-12-30T00:22:52.968Z,70.70
2023-12-30T00:25:19.432Z,70.69
2023-12-30T00:27:45.937Z,70.45
2023-12-30T00:30:12.466Z,70.82
2023-12-30T00:32:39.027Z,71.00
2023-12-30T00:35:05.528Z,70.54
2023-12-30T00:37:32.006Z,71.34
2023-12-30T00:39:58.553Z,70.83
2023-12-30T00:42:25.048Z,70.87
2023-12-30T00:44:51.489Z,71.12
2023-12-30T00:47:17.984Z,71.68
2023-12-30T00:49:44.458Z,71.42
2023-12-30T00:52:10.985Z,71.25
2023-12-30T00:54:41.219Z,71.22
2023-12-30T00:57:14.468Z,71.47
2023-12-30T00:59:41.084Z,71.39
2023-12-30T01:02:07.514Z,71.13
2023-12-30T01:04:34.478Z,70.99
2023-12-30T01:07:00.924Z,71.36
2023-12-30T01:09:27.368Z,70.84
2023-12-30T01:11:53.781Z,70.67
2023-12-30T01:14:20.253Z,70.43
2023-12-30T01:16:46.660Z,70.73
2023-12-30T01:21:56.149Z,70.62
2023-12-30T01:24:22.572Z,70.58
2023-12-30T01:26:49.071Z,70.36
2023-12-30T01:29:15.939Z,70.55
2023-12-30T01:31:42.570Z,70.71
2023-12-30T01:34:09.341Z,70.76
2023-12-30T01:36:37.607Z,70.63
2023-12-30T01:39:04.101Z,71.09
2023-12-30T01:44:22.993Z,70.34
2023-12-30T01:46:49.432Z,70.58
2023-12-30T01:49:16.007Z,70.87
2023-12-30T01:51:42.398Z,70.47
2023-12-30T01:54:08.802Z,70.87
2023-12-30T01:56:35.220Z,70.44
2023-12-30T01:59:01.646Z,70.63
2023-12-30T02:01:28.153Z,70.04
2023-12-30T02:04:02.198Z,70.42
2023-12-30T02:09:15.276Z,70.21
2023-12-30T02:11:41.783Z,70.32
2023-12-30T02:14:08.381Z,70.15
2023-12-30T02:16:34.815Z,70.19
2023-12-30T02:19:01.324Z,70.12
2023-12-30T02:21:40.069Z,70.40
2023-12-30T02:24:06.487Z,70.55
2023-12-30T02:26:32.932Z,71.04
2023-12-30T02:29:02.984Z,71.09
2023-12-30T02:31:32.223Z,70.55
2023-12-30T02:33:58.683Z,70.41
2023-12-30T02:36:45.157Z,70.85
2023-12-30T02:39:11.766Z,70.75
2023-12-30T02:41:38.166Z,70.95
2023-12-30T02:44:04.570Z,71.04
2023-12-30T02:46:31.007Z,70.54
2023-12-30T02:48:57.536Z,70.56
2023-12-30T02:51:23.967Z,70.84
2023-12-30T02:53:50.363Z,70.67
2023-12-30T02:56:16.757Z,70.42
2023-12-30T03:04:14.569Z,71.64
2023-12-30T03:06:43.152Z,71.74
2023-12-30T03:09:18.087Z,70.70
2023-12-30T03:11:44.576Z,71.31
2023-12-30T03:14:11.091Z,70.80
2023-12-30T03:16:38.004Z,70.85
2023-12-30T03:19:04.829Z,71.06
2023-12-30T03:21:31.434Z,71.15
2023-12-30T03:23:58.006Z,71.58
2023-12-30T03:26:24.565Z,71.55
2023-12-30T03:28:51.025Z,71.75
2023-12-30T03:31:17.479Z,71.39
2023-12-30T03:33:43.926Z,71.88
2023-12-30T03:36:10.375Z,71.22
2023-12-30T03:41:27.271Z,70.81
2023-12-30T03:43:53.794Z,70.86
2023-12-30T03:46:20.269Z,71.07
2023-12-30T03:48:46.834Z,70.88
2023-12-30T03:51:13.546Z,70.23
2023-12-30T03:53:39.962Z,70.84
2023-12-30T03:56:21.733Z,71.30
2023-12-30T03:58:48.303Z,72.52
2023-12-30T04:01:17.838Z,72.90
2023-12-30T04:03:44.351Z,73.53
2023-12-30T04:06:10.797Z,73.24
2023-12-30T04:08:37.263Z,72.88
2023-12-30T04:11:03.705Z,73.15
2023-12-30T04:13:30.290Z,72.80
2023-12-30T04:15:56.885Z,72.90
2023-12-30T04:18:23.451Z,72.76
2023-12-30T04:20:49.904Z,72.47
2023-12-30T04:23:16.314Z,72.16
2023-12-30T04:25:42.791Z,71.56
2023-12-30T04:28:09.264Z,71.06
2023-12-30T04:30:35.754Z,71.06
2023-12-30T04:33:02.499Z,71.33
2023-12-30T04:35:29.141Z,70.53
2023-12-30T04:37:55.569Z,70.40
2023-12-30T04:40:22.107Z,70.77
2023-12-30T04:42:48.529Z,69.57
2023-12-30T04:45:14.946Z,69.33
2023-12-30T04:47:41.721Z,69.63
2023-12-30T04:50:08.357Z,68.15
2023-12-30T04:52:35.290Z,67.88
2023-12-30T04:55:01.817Z,67.15
2023-12-30T04:57:28.264Z,67.12
2023-12-30T04:59:54.711Z,65.85
2023-12-30T05:02:21.118Z,65.51
2023-12-30T05:04:47.538Z,65.40
2023-12-30T05:07:13.989Z,64.57
2023-12-30T05:09:40.416Z,63.78
2023-12-30T05:12:06.805Z,63.98
2023-12-30T05:17:16.592Z,64.69
2023-12-30T05:19:43.096Z,65.42
2023-12-30T05:22:12.124Z,66.61
2023-12-30T05:24:38.775Z,66.84
2023-12-30T05:27:05.169Z,67.22
2023-12-30T05:29:31.541Z,67.46
2023-12-30T05:31:58.013Z,67.63
2023-12-30T05:34:47.454Z,68.38
2023-12-30T05:37:13.927Z,69.12
2023-12-30T05:39:40.376Z,68.57
2023-12-30T05:42:06.770Z,68.40
2023-12-30T05:44:33.194Z,68.68
2023-12-30T05:46:59.630Z,68.41
2023-12-30T05:49:26.112Z,68.58
2023-12-30T05:51:52.662Z,68.60
2023-12-30T05:54:19.275Z,69.29
2023-12-30T05:56:45.673Z,70.66
2023-12-30T05:59:12.062Z,70.79
2023-12-30T06:01:38.553Z,70.57
2023-12-30T06:04:05.143Z,70.90
2023-12-30T06:06:33.101Z,70.13
2023-12-30T06:08:59.827Z,70.08
2023-12-30T06:11:26.240Z,71.56
2023-12-30T06:13:52.613Z,72.35
2023-12-30T06:16:19.029Z,71.91
2023-12-30T06:18:45.519Z,72.37
2023-12-30T06:21:12.021Z,73.90
2023-12-30T06:23:38.425Z,74.06
2023-12-30T06:28:45.211Z,73.39
2023-12-30T06:31:11.761Z,72.89
2023-12-30T06:33:38.310Z,73.12
2023-12-30T06:36:04.758Z,72.93
2023-12-30T06:38:31.188Z,72.23
2023-12-30T06:40:57.583Z,71.67
2023-12-30T06:43:24.097Z,71.56
2023-12-30T06:48:42.013Z,71.25
2023-12-30T06:51:08.472Z,69.65
2023-12-30T06:53:35.206Z,70.17
2023-12-30T06:56:01.652Z,69.71
2023-12-30T06:58:28.077Z,70.25
2023-12-30T07:00:54.683Z,69.28
2023-12-30T07:03:21.110Z,69.94
2023-12-30T07:05:51.656Z,69.73
2023-12-30T07:08:22.831Z,68.70
2023-12-30T07:10:49.311Z,68.56
2023-12-30T07:13:15.775Z,68.85
2023-12-30T07:15:42.204Z,69.62
2023-12-30T07:18:08.847Z,69.74
2023-12-30T07:20:35.377Z,69.68
2023-12-30T07:23:02.024Z,69.97
2023-12-30T07:25:28.628Z,69.35
2023-12-30T07:27:55.204Z,68.83
2023-12-30T07:30:21.813Z,68.35
2023-12-30T07:32:48.482Z,67.94
2023-12-30T07:35:14.984Z,68.50
2023-12-30T07:37:41.510Z,68.33
2023-12-30T07:40:08.059Z,68.31
2023-12-30T07:42:34.531Z,67.92
2023-12-30T07:45:00.975Z,68.65
2023-12-30T07:47:27.677Z,68.38
2023-12-30T07:49:54.267Z,68.01
2023-12-30T07:52:20.858Z,68.10
2023-12-30T07:54:47.335Z,67.93
2023-12-30T07:57:13.824Z,68.04
2023-12-30T07:59:40.348Z,67.86
2023-12-30T08:02:06.824Z,68.12
2023-12-30T08:04:33.255Z,68.69
2023-12-30T08:06:59.775Z,68.41
2023-12-30T08:09:26.241Z,68.29
2023-12-30T08:11:59.545Z,68.38
2023-12-30T08:14:29.296Z,67.80
2023-12-30T08:16:55.921Z,67.58
2023-12-30T08:19:22.396Z,67.86
2023-12-30T08:21:48.989Z,67.42
2023-12-30T08:24:15.447Z,67.34
2023-12-30T08:26:41.865Z,67.42
2023-12-30T08:29:08.280Z,67.30
2023-12-30T08:31:35.231Z,67.55
2023-12-30T08:34:01.763Z,67.68
2023-12-30T08:36:28.241Z,67.11
2023-12-30T08:38:54.756Z,67.64
2023-12-30T08:41:21.291Z,66.59
2023-12-30T08:43:47.755Z,67.23
2023-12-30T08:46:14.238Z,67.28
2023-12-30T08:48:40.811Z,67.01
2023-12-30T08:51:07.341Z,67.08
2023-12-30T08:53:33.896Z,66.59
2023-12-30T08:56:00.321Z,67.57
2023-12-30T08:58:26.944Z,67.36
2023-12-30T09:00:53.441Z,67.39
2023-12-30T09:03:20.388Z,67.21
2023-12-30T09:05:47.042Z,67.25
2023-12-30T09:08:31.838Z,67.40
2023-12-30T09:11:01.973Z,67.88
2023-12-30T09:13:28.543Z,67.55
2023-12-30T09:15:55.011Z,67.00
2023-12-30T09:18:23.569Z,66.70
2023-12-30T09:20:50.369Z,66.37
2023-12-30T09:23:16.987Z,66.73
2023-12-30T09:25:43.409Z,66.50
2023-12-30T09:28:09.802Z,66.89
2023-12-30T09:30:36.479Z,66.32
2023-12-30T09:33:03.443Z,66.60
2023-12-30T09:35:30.098Z,66.75
2023-12-30T09:37:56.565Z,67.65
2023-12-30T09:40:23.100Z,68.37
2023-12-30T09:42:49.515Z,68.12
2023-12-30T09:45:15.964Z,68.05
2023-12-30T09:47:42.578Z,67.75
2023-12-30T09:50:09.033Z,67.80
2023-12-30T09:52:35.584Z,66.70
2023-12-30T09:55:02.121Z,66.46
2023-12-30T09:57:28.559Z,66.37
2023-12-30T09:59:55.039Z,66.06
2023-12-30T10:02:21.470Z,66.31
2023-12-30T10:04:48.001Z,65.82
2023-12-30T10:07:14.515Z,65.49
2023-12-30T10:09:40.937Z,64.99
2023-12-30T10:12:07.369Z,65.82
2023-12-30T10:14:33.764Z,66.05
2023-12-30T10:17:00.280Z,66.05
2023-12-30T10:19:26.725Z,66.25
2023-12-30T10:21:53.236Z,66.92
2023-12-30T10:24:19.626Z,67.72
2023-12-30T10:26:46.009Z,67.69
2023-12-30T10:29:12.606Z,67.07
2023-12-30T10:31:39.070Z,66.39
2023-12-30T10:34:05.786Z,65.93
2023-12-30T10:36:32.266Z,66.04
2023-12-30T10:38:58.661Z,64.88
2023-12-30T10:41:25.135Z,65.45
2023-12-30T10:43:51.571Z,64.46
2023-12-30T10:46:17.987Z,65.44
2023-12-30T10:48:44.382Z,65.00
2023-12-30T10:51:10.811Z,65.23
2023-12-30T10:53:37.198Z,64.44
2023-12-30T10:56:05.981Z,64.17
2023-12-30T10:58:32.370Z,64.85
2023-12-30T11:00:59.018Z,65.46
2023-12-30T11:03:25.547Z,64.32
2023-12-30T11:05:52.060Z,64.41
2023-12-30T11:08:18.464Z,63.84
2023-12-30T11:10:46.275Z,63.80
2023-12-30T11:13:12.928Z,63.38
2023-12-30T11:15:39.480Z,63.70
2023-12-30T11:18:06.084Z,63.58
2023-12-30T11:20:32.552Z,62.57
2023-12-30T11:22:59.058Z,63.77
2023-12-30T11:25:25.652Z,63.65
2023-12-30T11:27:52.039Z,62.93
2023-12-30T11:30:18.498Z,63.30
2023-12-30T11:32:45.008Z,64.38
2023-12-30T11:35:11.451Z,65.85
2023-12-30T11:37:37.940Z,65.22
2023-12-30T11:40:04.351Z,65.17
2023-12-30T11:42:37.813Z,65.70
2023-12-30T11:45:11.632Z,65.22
2023-12-30T11:47:38.073Z,65.90
2023-12-30T11:50:04.520Z,65.69
2023-12-30T11:52:30.965Z,66.68
2023-12-30T11:54:57.435Z,66.80
2023-12-30T11:57:23.856Z,67.40
2023-12-30T11:59:50.241Z,67.94
2023-12-30T12:02:16.727Z,69.42
2023-12-30T12:04:43.342Z,69.80
2023-12-30T12:07:09.894Z,69.58
2023-12-30T12:09:36.362Z,69.50
2023-12-30T12:12:02.809Z,68.82
2023-12-30T12:14:29.777Z,67.68
2023-12-30T12:16:56.183Z,68.02
2023-12-30T12:19:22.757Z,68.78
2023-12-30T12:21:49.268Z,67.88
2023-12-30T12:24:15.691Z,67.74
2023-12-30T12:26:42.219Z,67.42
2023-12-30T12:29:08.649Z,67.48
2023-12-30T12:31:35.662Z,68.17
2023-12-30T12:34:02.238Z,67.61
2023-12-30T12:36:28.739Z,68.02
2023-12-30T12:38:55.168Z,68.29
2023-12-30T12:41:21.566Z,67.49
2023-12-30T12:43:48.107Z,69.14
2023-12-30T12:46:14.649Z,68.77
2023-12-30T12:48:41.520Z,68.35
2023-12-30T12:51:08.148Z,68.63
2023-12-30T12:53:35.037Z,68.06
2023-12-30T12:56:01.458Z,68.03
2023-12-30T12:58:30.991Z,67.11
2023-12-30T13:00:57.571Z,66.68
2023-12-30T13:03:24.293Z,66.60
2023-12-30T13:05:51.277Z,66.76
2023-12-30T13:08:19.962Z,66.99
2023-12-30T13:10:47.602Z,68.14
2023-12-30T13:13:14.506Z,68.06
2023-12-30T13:15:41.132Z,68.04
2023-12-30T13:18:10.176Z,66.53
2023-12-30T13:20:37.637Z,66.93
2023-12-30T13:25:31.488Z,65.42
2023-12-30T13:28:00.636Z,66.59
2023-12-30T13:30:27.146Z,66.16
2023-12-30T13:32:53.689Z,66.64
2023-12-30T13:35:20.538Z,66.28
2023-12-30T13:37:47.107Z,65.33
2023-12-30T13:40:13.687Z,65.05
2023-12-30T13:45:30.304Z,66.27
2023-12-30T13:48:07.049Z,67.70
2023-12-30T13:50:33.760Z,68.05
2023-12-30T13:53:00.607Z,67.82
2023-12-30T13:58:08.381Z,68.14
2023-12-30T14:00:37.823Z,68.24
2023-12-30T14:03:13.760Z,69.00
2023-12-30T14:05:42.706Z,68.62
2023-12-30T14:08:09.642Z,68.55
2023-12-30T14:10:36.669Z,68.85
2023-12-30T14:13:04.876Z,68.66
2023-12-30T14:15:31.534Z,68.64
2023-12-30T14:17:58.195Z,68.59
2023-12-30T14:20:24.773Z,68.75
2023-12-30T14:22:51.185Z,69.54
2023-12-30T14:25:17.717Z,69.15
2023-12-30T14:27:44.125Z,69.30
2023-12-30T14:30:10.989Z,69.50
2023-12-30T14:32:45.548Z,68.83
2023-12-30T14:35:12.568Z,69.92
2023-12-30T14:37:39.183Z,69.30
2023-12-30T14:40:05.810Z,68.97
2023-12-30T14:42:32.351Z,69.09
2023-12-30T14:44:59.854Z,69.77
2023-12-30T14:47:26.529Z,70.04
2023-12-30T14:49:53.506Z,69.36
2023-12-30T14:52:24.354Z,69.59
2023-12-30T14:55:01.764Z,69.88
2023-12-30T14:57:29.197Z,69.55
2023-12-30T14:59:55.673Z,69.37
2023-12-30T15:02:22.161Z,69.72
2023-12-30T15:04:48.711Z,69.66
2023-12-30T15:07:15.322Z,69.99
2023-12-30T15:09:41.939Z,69.54
2023-12-30T15:12:08.435Z,69.87
2023-12-30T15:14:34.922Z,69.35
2023-12-30T15:17:01.397Z,69.51
2023-12-30T15:19:27.910Z,69.33
2023-12-30T15:21:54.394Z,69.70
2023-12-30T15:24:20.856Z,69.99
2023-12-30T15:26:47.267Z,70.37
2023-12-30T15:29:13.736Z,69.48
2023-12-30T15:31:41.946Z,69.73
2023-12-30T15:34:09.970Z,70.35
2023-12-30T15:36:36.877Z,70.55
2023-12-30T15:39:03.317Z,70.38
2023-12-30T15:41:29.820Z,70.27
2023-12-30T15:43:56.476Z,70.14
2023-12-30T15:46:23.191Z,70.19
2023-12-30T15:48:49.902Z,70.27
2023-12-30T15:51:16.473Z,70.11
2023-12-30T15:53:43.019Z,70.31
2023-12-30T15:56:09.608Z,69.97
2023-12-30T15:58:36.117Z,70.08
2023-12-30T16:01:02.800Z,69.90
2023-12-30T16:03:29.240Z,69.19
2023-12-30T16:05:55.766Z,68.85
2023-12-30T16:08:22.205Z,68.92
2023-12-30T16:10:48.653Z,69.31
2023-12-30T16:13:15.085Z,68.16
2023-12-30T16:15:41.501Z,68.32
2023-12-30T16:18:08.079Z,68.23
2023-12-30T16:20:34.534Z,67.88
2023-12-30T16:28:32.484Z,67.24
2023-12-30T16:31:00.140Z,67.95
2023-12-30T16:33:26.735Z,68.04
2023-12-30T16:35:53.258Z,67.34
2023-12-30T16:38:19.758Z,67.75
2023-12-30T16:40:46.218Z,66.86
2023-12-30T16:43:12.740Z,67.34
2023-12-30T16:45:39.281Z,67.22
2023-12-30T16:48:05.768Z,67.19
2023-12-30T16:50:32.234Z,66.48
2023-12-30T16:52:58.705Z,66.56
2023-12-30T16:55:25.215Z,65.29
2023-12-30T16:57:51.695Z,64.50
2023-12-30T17:00:18.159Z,63.16
2023-12-30T17:02:44.645Z,62.21
2023-12-30T17:05:11.194Z,62.37
2023-12-30T17:07:37.792Z,61.45
2023-12-30T17:10:04.368Z,62.12
2023-12-30T17:12:30.768Z,62.83
2023-12-30T17:14:57.150Z,62.28
2023-12-30T17:17:23.518Z,63.14
2023-12-30T17:22:35.231Z,62.53
2023-12-30T17:25:01.765Z,62.94
2023-12-30T17:27:28.214Z,62.04
2023-12-30T17:29:54.660Z,62.30
2023-12-30T17:32:21.784Z,62.78
2023-12-30T17:34:48.528Z,62.97
2023-12-30T17:37:15.089Z,63.14
2023-12-30T17:39:41.658Z,63.33
2023-12-30T17:42:08.142Z,62.85
2023-12-30T17:44:34.662Z,62.88
2023-12-30T17:47:01.196Z,62.99
2023-12-30T17:49:27.846Z,62.95
2023-12-30T17:51:54.437Z,63.10
2023-12-30T17:54:20.980Z,62.49
2023-12-30T17:56:47.511Z,63.21
2023-12-30T17:59:14.073Z,63.38
2023-12-30T18:01:40.652Z,64.35
2023-12-30T18:04:08.233Z,64.79
2023-12-30T18:06:34.732Z,65.20
2023-12-30T18:09:01.238Z,65.69
2023-12-30T18:11:27.839Z,65.87
2023-12-30T18:13:54.332Z,66.20
2023-12-30T18:16:20.800Z,66.64
2023-12-30T18:18:47.354Z,66.39
2023-12-30T18:21:14.125Z,66.72
2023-12-30T18:23:40.601Z,65.61
2023-12-30T18:26:06.988Z,65.51
2023-12-30T18:28:33.529Z,64.34
2023-12-30T18:31:00.034Z,63.69
2023-12-30T18:33:31.495Z,63.88
2023-12-30T18:36:03.436Z,64.54
2023-12-30T18:38:29.965Z,64.87
2023-12-30T18:40:56.461Z,65.69
2023-12-30T18:43:24.887Z,64.85
2023-12-30T18:45:51.429Z,63.48
2023-12-30T18:48:17.932Z,63.75
2023-12-30T18:50:44.485Z,64.30
2023-12-30T18:53:11.413Z,64.74
2023-12-30T18:55:37.966Z,64.47
2023-12-30T18:58:04.632Z,63.36
2023-12-30T19:00:31.467Z,63.99
2023-12-30T19:03:00.507Z,64.66
2023-12-30T19:05:27.505Z,63.52
2023-12-30T19:07:54.859Z,64.23
2023-12-30T19:10:23.916Z,63.81
2023-12-30T19:12:50.335Z,61.44
2023-12-30T19:15:16.728Z,60.25
2023-12-30T19:17:44.186Z,62.01
2023-12-30T19:20:32.270Z,62.38
2023-12-30T19:22:58.783Z,62.66
2023-12-30T19:25:25.361Z,62.33
2023-12-30T19:27:52.077Z,62.57
2023-12-30T19:30:19.769Z,63.27
2023-12-30T19:32:46.315Z,63.22
2023-12-30T19:35:13.265Z,64.63
2023-12-30T19:37:40.127Z,64.77
2023-12-30T19:40:06.724Z,64.94
2023-12-30T19:42:33.117Z,65.36
2023-12-30T19:44:59.494Z,65.36
2023-12-30T19:47:25.948Z,66.01
2023-12-30T19:49:52.496Z,66.42
2023-12-30T19:52:19.063Z,66.65
2023-12-30T19:54:45.504Z,66.54
2023-12-30T19:57:11.995Z,68.58
2023-12-30T19:59:38.485Z,68.81
2023-12-30T20:02:05.074Z,67.49
2023-12-30T20:04:31.710Z,66.92
2023-12-30T20:07:07.403Z,67.02
2023-12-30T20:09:33.954Z,66.62
2023-12-30T20:14:50.809Z,66.70
2023-12-30T20:17:17.252Z,67.62
2023-12-30T20:19:44.193Z,66.68
2023-12-30T20:22:10.798Z,66.45
2023-12-30T20:24:37.314Z,66.15
2023-12-30T20:27:04.631Z,65.24
2023-12-30T20:29:33.250Z,64.41
2023-12-30T20:32:00.776Z,63.70
2023-12-30T20:34:27.357Z,63.37
2023-12-30T20:36:53.847Z,62.63
2023-12-30T20:39:20.357Z,64.46
2023-12-30T20:41:46.830Z,63.87
2023-12-30T20:44:13.301Z,64.08
2023-12-30T20:46:39.797Z,64.69
2023-12-30T20:49:06.380Z,64.56
2023-12-30T20:51:32.932Z,65.13
2023-12-30T20:53:59.432Z,64.05
2023-12-30T20:56:25.933Z,63.26
2023-12-30T20:58:52.451Z,61.30
2023-12-30T21:01:19.085Z,61.22
2023-12-30T21:03:45.707Z,62.46
2023-12-30T21:06:12.279Z,62.74
2023-12-30T21:08:41.737Z,62.70
2023-12-30T21:11:09.648Z,63.43
2023-12-30T21:13:36.200Z,63.66
2023-12-30T21:16:02.728Z,62.72
2023-12-30T21:18:42.767Z,63.52
2023-12-30T21:21:09.324Z,63.09
2023-12-30T21:23:36.111Z,62.71
2023-12-30T21:26:02.758Z,61.43
2023-12-30T21:28:29.312Z,62.88
2023-12-30T21:30:55.895Z,62.22
2023-12-30T21:33:22.454Z,62.54
2023-12-30T21:35:50.645Z,63.37
2023-12-30T21:38:17.234Z,61.55
2023-12-30T21:40:44.425Z,61.63
2023-12-30T21:43:10.988Z,61.99
2023-12-30T21:45:37.421Z,61.66
2023-12-30T21:48:04.068Z,61.38
2023-12-30T21:50:30.601Z,62.27
2023-12-30T21:52:57.184Z,62.35
2023-12-30T21:55:23.761Z,60.21
2023-12-30T21:57:50.184Z,60.14
2023-12-30T22:00:16.576Z,60.80
2023-12-30T22:02:43.082Z,61.42
2023-12-30T22:05:09.562Z,60.25
2023-12-30T22:07:36.042Z,60.11
2023-12-30T22:10:02.436Z,60.37
2023-12-30T22:12:28.919Z,60.33
2023-12-30T22:14:55.313Z,61.09
2023-12-30T22:17:21.892Z,61.18
2023-12-30T22:19:48.415Z,61.18
2023-12-30T22:22:14.895Z,61.25
2023-12-30T22:24:41.277Z,58.52
2023-12-30T22:27:07.660Z,58.38
2023-12-30T22:29:43.126Z,57.97
2023-12-30T22:32:09.624Z,57.66
2023-12-30T22:34:36.068Z,57.16
2023-12-30T22:37:02.501Z,56.83
2023-12-30T22:39:28.996Z,57.46
2023-12-30T22:41:55.538Z,57.13
2023-12-30T22:44:24.237Z,57.55
2023-12-30T22:46:50.838Z,56.85
2023-12-30T22:49:17.466Z,57.47
2023-12-30T22:51:44.064Z,58.43
2023-12-30T22:54:10.507Z,56.75
2023-12-30T22:56:37.019Z,57.21
2023-12-30T22:59:03.496Z,57.16
2023-12-30T23:01:30.102Z,56.74
2023-12-30T23:03:56.894Z,57.13
2023-12-30T23:06:23.366Z,56.70
2023-12-30T23:08:49.829Z,56.14
2023-12-30T23:11:16.283Z,56.23
2023-12-30T23:13:42.892Z,56.35
2023-12-30T23:18:49.817Z,55.72
2023-12-30T23:21:16.365Z,54.68
2023-12-30T23:23:42.942Z,54.29
2023-12-30T23:26:09.383Z,54.60
2023-12-30T23:28:36.194Z,56.28
2023-12-30T23:31:02.730Z,57.04
2023-12-30T23:33:29.411Z,56.31
2023-12-30T23:35:55.876Z,55.41
2023-12-30T23:38:22.356Z,56.53
2023-12-30T23:40:48.881Z,55.76
2023-12-30T23:43:15.549Z,55.11
2023-12-30T23:45:41.989Z,54.97
2023-12-30T23:48:08.490Z,55.75
2023-12-30T23:50:34.960Z,56.18
2023-12-30T23:53:01.928Z,57.59
2023-12-30T23:55:28.645Z,57.50
2023-12-30T23:57:55.257Z,57.15
